createdAt,value
2018-07-24T00:02:18.023Z,22.20
2018-07-24T00:04:46.487Z,22.20
2018-07-24T00:07:14.957Z,22.20
2018-07-24T00:09:43.934Z,22.10
2018-07-24T00:12:12.409Z,22.10
2018-07-24T00:14:41.740Z,22.10
2018-07-24T00:17:10.394Z,22.00
2018-07-24T00:19:38.875Z,22.00
2018-07-24T00:22:07.460Z,22.00
2018-07-24T00:24:36.017Z,21.90
2018-07-24T00:29:32.668Z,21.80
2018-07-24T00:34:29.660Z,21.70
2018-07-24T00:36:58.457Z,21.70
2018-07-24T00:39:26.940Z,21.70
2018-07-24T00:41:55.427Z,21.60
2018-07-24T00:44:23.917Z,21.70
2018-07-24T00:46:52.401Z,21.70
2018-07-24T00:49:20.882Z,21.70
2018-07-24T00:51:49.399Z,21.60
2018-07-24T00:54:18.264Z,21.50
2018-07-24T00:56:47.936Z,21.50
2018-07-24T00:59:16.401Z,21.40
2018-07-24T01:01:45.249Z,21.40
2018-07-24T01:04:13.701Z,21.40
2018-07-24T01:06:42.176Z,21.30
2018-07-24T01:09:11.777Z,21.30
2018-07-24T01:11:40.636Z,21.30
2018-07-24T01:14:10.149Z,21.30
2018-07-24T01:19:07.005Z,21.20
2018-07-24T01:21:35.485Z,21.20
2018-07-24T01:24:03.980Z,21.20
2018-07-24T01:29:00.717Z,21.20
2018-07-24T01:31:29.191Z,21.00
2018-07-24T01:33:57.691Z,21.00
2018-07-24T01:36:26.141Z,21.10
2018-07-24T01:38:54.631Z,21.00
2018-07-24T01:41:23.117Z,21.00
2018-07-24T01:43:51.599Z,21.00
2018-07-24T01:46:20.193Z,20.90
2018-07-24T01:51:16.866Z,20.80
2018-07-24T02:01:09.990Z,20.80
2018-07-24T02:03:38.466Z,20.70
2018-07-24T02:06:07.158Z,20.70
2018-07-24T02:08:35.658Z,20.70
2018-07-24T02:11:04.120Z,20.70
2018-07-24T02:13:32.727Z,20.80
2018-07-24T02:16:01.183Z,20.80
2018-07-24T02:18:29.686Z,20.70
2018-07-24T02:20:58.224Z,20.70
2018-07-24T02:23:26.658Z,20.70
2018-07-24T02:25:55.137Z,20.60
2018-07-24T02:28:23.585Z,20.50
2018-07-24T02:30:52.091Z,20.40
2018-07-24T02:33:20.562Z,20.40
2018-07-24T02:35:49.078Z,20.40
2018-07-24T02:38:17.593Z,20.30
2018-07-24T02:40:46.106Z,20.30
2018-07-24T02:43:14.562Z,20.20
2018-07-24T02:48:11.479Z,20.20
2018-07-24T02:50:39.998Z,20.10
2018-07-24T03:02:21.562Z,20.10
2018-07-24T03:04:50.107Z,19.90
2018-07-24T03:07:18.618Z,19.90
2018-07-24T03:12:15.406Z,19.80
2018-07-24T03:14:43.912Z,19.80
2018-07-24T03:17:12.420Z,19.80
2018-07-24T03:19:40.882Z,19.80
2018-07-24T03:22:09.432Z,19.70
2018-07-24T03:24:38.002Z,19.70
2018-07-24T03:27:06.752Z,19.60
2018-07-24T03:29:35.258Z,19.60
2018-07-24T03:34:31.874Z,19.60
2018-07-24T03:37:00.381Z,19.70
2018-07-24T03:39:28.859Z,19.70
2018-07-24T03:41:57.397Z,19.90
2018-07-24T03:44:25.882Z,20.00
2018-07-24T03:46:54.501Z,20.20
2018-07-24T03:49:22.963Z,20.30
2018-07-24T03:51:51.445Z,20.40
2018-07-24T03:54:19.931Z,20.50
2018-07-24T03:56:48.645Z,20.70
2018-07-24T04:01:45.417Z,20.80
2018-07-24T04:04:13.986Z,21.00
2018-07-24T04:09:11.910Z,21.10
2018-07-24T04:11:41.250Z,21.20
2018-07-24T04:14:09.887Z,21.30
2018-07-24T04:16:39.118Z,21.30
2018-07-24T04:19:07.635Z,21.40
2018-07-24T04:24:04.461Z,21.60
2018-07-24T04:26:32.938Z,21.70
2018-07-24T04:29:01.625Z,21.80
2018-07-24T04:31:30.140Z,21.80
2018-07-24T04:33:58.582Z,21.90
2018-07-24T04:36:27.086Z,22.10
2018-07-24T04:38:55.510Z,22.10
2018-07-24T04:41:26.883Z,22.20
2018-07-24T04:43:55.575Z,22.30
2018-07-24T04:46:25.004Z,22.40
2018-07-24T04:48:53.452Z,22.50
2018-07-24T04:51:21.959Z,22.60
2018-07-24T04:53:50.434Z,22.70
2018-07-24T04:56:18.965Z,22.80
2018-07-24T04:58:47.437Z,22.90
2018-07-24T05:03:44.230Z,23.00
2018-07-24T05:06:12.743Z,23.00
2018-07-24T05:08:41.261Z,23.10
2018-07-24T05:11:09.848Z,23.10
2018-07-24T05:13:38.591Z,23.20
2018-07-24T05:16:07.125Z,23.30
2018-07-24T05:18:35.574Z,23.40
2018-07-24T05:21:04.511Z,23.50
2018-07-24T05:23:34.241Z,23.50
2018-07-24T05:26:02.825Z,23.70
2018-07-24T05:28:31.263Z,23.70
2018-07-24T05:30:59.821Z,23.80
2018-07-24T05:33:28.303Z,23.90
2018-07-24T05:35:56.928Z,24.00
2018-07-24T05:38:25.382Z,24.00
2018-07-24T05:43:22.417Z,24.20
2018-07-24T05:45:50.984Z,24.20
2018-07-24T05:48:19.447Z,24.30
2018-07-24T05:50:47.916Z,24.40
2018-07-24T05:53:16.485Z,24.40
2018-07-24T05:55:44.969Z,24.50
2018-07-24T05:58:13.490Z,24.60
2018-07-24T06:00:41.986Z,24.60
2018-07-24T06:03:10.543Z,24.70
2018-07-24T06:05:39.020Z,24.80
2018-07-24T06:08:07.514Z,24.80
2018-07-24T06:10:35.974Z,24.90
2018-07-24T06:13:05.197Z,24.90
2018-07-24T06:15:33.879Z,25.00
2018-07-24T06:18:02.382Z,25.00
2018-07-24T06:20:30.830Z,25.10
2018-07-24T06:22:59.357Z,25.10
2018-07-24T06:25:27.860Z,25.20
2018-07-24T06:27:56.562Z,25.30
2018-07-24T06:30:25.031Z,25.30
2018-07-24T06:32:53.612Z,25.40
2018-07-24T06:35:22.205Z,25.40
2018-07-24T06:37:51.296Z,25.40
2018-07-24T06:42:48.027Z,25.60
2018-07-24T06:45:16.581Z,25.70
2018-07-24T06:47:45.113Z,25.70
2018-07-24T06:50:13.778Z,25.80
2018-07-24T06:52:42.509Z,25.90
2018-07-24T06:55:11.081Z,25.90
2018-07-24T06:57:40.442Z,26.00
2018-07-24T07:00:09.007Z,26.10
2018-07-24T07:02:37.469Z,26.10
2018-07-24T07:05:06.559Z,26.10
2018-07-24T07:07:35.013Z,26.20
2018-07-24T07:10:03.628Z,26.30
2018-07-24T07:12:32.796Z,26.40
2018-07-24T07:15:01.565Z,26.50
2018-07-24T07:17:30.054Z,26.60
2018-07-24T07:19:58.578Z,26.60
2018-07-24T07:22:27.087Z,26.80
2018-07-24T07:24:55.593Z,26.90
2018-07-24T07:29:52.239Z,27.00
2018-07-24T07:32:20.788Z,27.10
2018-07-24T07:34:49.407Z,27.20
2018-07-24T07:37:17.958Z,27.20
2018-07-24T07:39:46.519Z,27.30
2018-07-24T07:42:14.965Z,27.30
2018-07-24T07:44:43.482Z,27.30
2018-07-24T07:47:12.031Z,27.50
2018-07-24T07:52:08.752Z,27.60
2018-07-24T07:54:37.203Z,27.70
2018-07-24T07:57:05.728Z,27.80
2018-07-24T07:59:34.311Z,27.90
2018-07-24T08:02:02.838Z,27.90
2018-07-24T08:04:31.354Z,28.00
2018-07-24T08:06:59.989Z,28.00
2018-07-24T08:09:28.537Z,28.10
2018-07-24T08:11:57.080Z,28.20
2018-07-24T08:14:26.172Z,28.20
2018-07-24T08:16:54.762Z,28.30
2018-07-24T08:19:23.276Z,28.40
2018-07-24T08:21:52.234Z,28.50
2018-07-24T08:24:20.758Z,28.60
2018-07-24T08:26:49.217Z,28.60
2018-07-24T08:29:17.713Z,28.70
2018-07-24T08:31:46.173Z,28.80
2018-07-24T08:34:14.711Z,28.80
2018-07-24T08:36:43.188Z,28.90
2018-07-24T08:39:12.842Z,28.90
2018-07-24T08:41:42.091Z,29.00
2018-07-24T08:44:10.583Z,29.00
2018-07-24T08:46:39.080Z,29.00
2018-07-24T08:49:07.802Z,29.00
2018-07-24T08:51:36.252Z,28.90
2018-07-24T08:54:04.860Z,29.00
2018-07-24T08:56:33.359Z,29.00
2018-07-24T08:59:01.817Z,29.20
2018-07-24T09:01:30.323Z,29.20
2018-07-24T09:03:58.819Z,29.40
2018-07-24T09:06:27.409Z,29.40
2018-07-24T09:08:55.999Z,29.40
2018-07-24T09:11:25.466Z,29.40
2018-07-24T09:13:55.215Z,29.40
2018-07-24T09:16:24.750Z,29.30
2018-07-24T09:18:54.627Z,29.40
2018-07-24T09:21:23.161Z,29.50
2018-07-24T09:23:51.861Z,29.60
2018-07-24T09:26:20.390Z,29.70
2018-07-24T09:28:48.880Z,29.70
2018-07-24T09:31:18.726Z,29.60
2018-07-24T09:33:47.781Z,29.60
2018-07-24T09:38:45.104Z,29.70
2018-07-24T09:41:13.641Z,29.70
2018-07-24T09:43:42.144Z,29.60
2018-07-24T09:46:10.841Z,29.60
2018-07-24T09:48:39.550Z,29.60
2018-07-24T09:51:08.397Z,29.60
2018-07-24T09:53:36.858Z,29.70
2018-07-24T09:58:34.526Z,29.60
2018-07-24T10:01:08.519Z,29.60
2018-07-24T10:03:37.066Z,29.60
2018-07-24T10:06:05.586Z,29.60
2018-07-24T10:08:34.094Z,29.60
2018-07-24T10:11:02.641Z,29.60
2018-07-24T10:13:31.418Z,29.60
2018-07-24T10:15:59.921Z,29.60
2018-07-24T10:18:28.378Z,29.60
2018-07-24T10:20:56.962Z,29.50
2018-07-24T10:23:25.836Z,29.50
2018-07-24T10:25:54.334Z,29.50
2018-07-24T10:28:22.815Z,29.50
2018-07-24T10:30:51.334Z,29.50
2018-07-24T10:33:19.825Z,29.40
2018-07-24T10:35:49.064Z,29.40
2018-07-24T10:38:17.649Z,29.40
2018-07-24T10:40:46.228Z,29.40
2018-07-24T10:43:15.221Z,29.40
2018-07-24T10:45:44.163Z,29.40
2018-07-24T10:48:12.722Z,29.40
2018-07-24T10:50:41.623Z,29.50
2018-07-24T10:53:10.109Z,29.50
2018-07-24T10:55:39.078Z,29.40
2018-07-24T10:58:07.597Z,29.30
2018-07-24T11:00:36.026Z,29.30
2018-07-24T11:03:04.626Z,29.30
2018-07-24T11:05:33.220Z,29.30
2018-07-24T11:08:02.493Z,29.20
2018-07-24T11:10:31.184Z,29.20
2018-07-24T11:12:59.894Z,29.20
2018-07-24T11:15:28.441Z,29.20
2018-07-24T11:17:56.930Z,29.20
2018-07-24T11:20:25.596Z,29.20
2018-07-24T11:22:54.226Z,29.20
2018-07-24T11:25:23.024Z,29.20
2018-07-24T11:27:51.546Z,29.10
2018-07-24T11:30:20.190Z,29.10
2018-07-24T11:32:48.706Z,29.10
2018-07-24T11:35:17.242Z,29.10
2018-07-24T11:37:45.906Z,29.10
2018-07-24T11:40:14.435Z,29.10
2018-07-24T11:42:42.913Z,29.10
2018-07-24T11:45:11.413Z,29.10
2018-07-24T11:47:39.874Z,29.10
2018-07-24T11:50:08.567Z,29.00
2018-07-24T11:52:37.429Z,29.00
2018-07-24T11:55:06.191Z,29.00
2018-07-24T11:57:34.726Z,29.00
2018-07-24T12:00:03.251Z,28.90
2018-07-24T12:02:31.781Z,28.90
2018-07-24T12:05:00.226Z,28.80
2018-07-24T12:07:28.771Z,28.80
2018-07-24T12:09:57.262Z,28.70
2018-07-24T12:12:25.781Z,28.70
2018-07-24T12:14:54.501Z,28.70
2018-07-24T12:17:22.966Z,28.60
2018-07-24T12:19:51.676Z,28.60
2018-07-24T12:22:20.177Z,28.60
2018-07-24T12:24:49.378Z,28.60
2018-07-24T12:27:18.137Z,28.60
2018-07-24T12:29:46.591Z,28.60
2018-07-24T12:32:15.105Z,28.60
2018-07-24T12:34:46.141Z,28.60
2018-07-24T12:37:16.801Z,28.60
2018-07-24T12:39:45.315Z,28.60
2018-07-24T12:42:13.822Z,28.60
2018-07-24T12:44:42.257Z,28.60
2018-07-24T12:47:10.724Z,28.70
2018-07-24T12:49:39.906Z,28.70
2018-07-24T12:52:08.436Z,28.70
2018-07-24T12:54:36.929Z,28.70
2018-07-24T12:57:05.562Z,29.00
2018-07-24T12:59:34.169Z,29.40
2018-07-24T13:02:02.659Z,30.00
2018-07-24T13:04:31.246Z,31.10
2018-07-24T13:06:59.741Z,32.00
2018-07-24T13:09:29.013Z,32.70
2018-07-24T13:11:57.593Z,33.40
2018-07-24T13:14:26.294Z,34.10
2018-07-24T13:16:55.355Z,34.80
2018-07-24T13:19:23.935Z,35.50
2018-07-24T13:21:52.449Z,36.10
2018-07-24T13:24:21.081Z,36.80
2018-07-24T13:26:50.206Z,37.20
2018-07-24T13:29:18.822Z,37.80
2018-07-24T13:31:47.342Z,38.40
2018-07-24T13:34:16.412Z,38.70
2018-07-24T13:36:45.208Z,39.10
2018-07-24T13:39:13.801Z,39.60
2018-07-24T13:41:42.268Z,40.20
2018-07-24T13:44:11.031Z,40.60
2018-07-24T13:46:39.688Z,41.00
2018-07-24T13:49:08.274Z,41.40
2018-07-24T13:54:04.903Z,42.10
2018-07-24T13:56:33.370Z,42.50
2018-07-24T13:59:02.700Z,42.80
2018-07-24T14:01:31.090Z,43.10
2018-07-24T14:03:59.898Z,43.40
2018-07-24T14:06:28.370Z,43.70
2018-07-24T14:08:56.889Z,44.10
2018-07-24T14:11:25.609Z,44.30
2018-07-24T14:13:54.371Z,44.50
2018-07-24T14:16:23.090Z,44.70
2018-07-24T14:18:51.823Z,44.90
2018-07-24T14:21:20.918Z,45.10
2018-07-24T14:23:49.424Z,45.10
2018-07-24T14:26:17.900Z,45.30
2018-07-24T14:28:46.444Z,45.40
2018-07-24T14:31:16.292Z,45.80
2018-07-24T14:33:45.318Z,46.30
2018-07-24T14:36:14.141Z,45.90
2018-07-24T14:38:42.664Z,45.10
2018-07-24T14:41:11.173Z,44.70
2018-07-24T14:43:39.686Z,45.30
2018-07-24T14:48:36.310Z,46.40
2018-07-24T14:51:05.060Z,46.70
2018-07-24T14:53:33.587Z,46.70
2018-07-24T14:56:03.229Z,46.90
2018-07-24T14:58:31.703Z,47.30
2018-07-24T15:01:00.198Z,47.40
2018-07-24T15:03:28.809Z,45.50
2018-07-24T15:05:57.292Z,44.70
2018-07-24T15:08:26.393Z,44.70
2018-07-24T15:10:54.906Z,44.20
2018-07-24T15:13:23.489Z,44.30
2018-07-24T15:15:52.128Z,45.20
2018-07-24T15:18:20.610Z,46.10
2018-07-24T15:20:49.173Z,46.60
2018-07-24T15:23:18.594Z,47.20
2018-07-24T15:25:47.584Z,47.80
2018-07-24T15:28:16.264Z,48.20
2018-07-24T15:30:45.698Z,48.30
2018-07-24T15:33:14.265Z,48.60
2018-07-24T15:35:42.920Z,48.90
2018-07-24T15:38:11.485Z,49.10
2018-07-24T15:40:40.053Z,49.40
2018-07-24T15:43:08.526Z,49.50
2018-07-24T15:45:37.473Z,49.60
2018-07-24T15:48:06.974Z,49.80
2018-07-24T15:50:35.666Z,50.00
2018-07-24T15:53:04.170Z,49.90
2018-07-24T15:55:32.700Z,50.10
2018-07-24T15:58:01.660Z,50.20
2018-07-24T16:00:30.326Z,50.30
2018-07-24T16:02:58.823Z,50.60
2018-07-24T16:05:27.356Z,50.60
2018-07-24T16:07:55.879Z,50.80
2018-07-24T16:10:24.411Z,50.90
2018-07-24T16:12:53.543Z,50.80
2018-07-24T16:15:22.111Z,50.90
2018-07-24T16:17:50.842Z,50.90
2018-07-24T16:20:19.439Z,50.90
2018-07-24T16:22:48.001Z,50.90
2018-07-24T16:25:16.559Z,51.00
2018-07-24T16:27:45.353Z,50.90
2018-07-24T16:30:13.934Z,49.00
2018-07-24T16:32:43.538Z,46.50
2018-07-24T16:35:12.239Z,44.70
2018-07-24T16:37:40.798Z,43.10
2018-07-24T16:40:10.207Z,41.60
2018-07-24T16:42:38.758Z,40.50
2018-07-24T16:45:07.361Z,39.50
2018-07-24T16:47:35.859Z,38.50
2018-07-24T16:50:05.568Z,37.80
2018-07-24T16:52:34.197Z,37.10
2018-07-24T16:55:03.610Z,36.50
2018-07-24T16:57:32.577Z,36.00
2018-07-24T17:00:01.218Z,35.60
2018-07-24T17:02:29.757Z,35.20
2018-07-24T17:04:58.586Z,34.90
2018-07-24T17:07:27.185Z,34.50
2018-07-24T17:09:56.394Z,34.30
2018-07-24T17:12:25.104Z,34.00
2018-07-24T17:14:53.997Z,33.80
2018-07-24T17:17:22.768Z,33.60
2018-07-24T17:19:51.308Z,33.40
2018-07-24T17:22:19.938Z,33.20
2018-07-24T17:24:48.408Z,33.10
2018-07-24T17:27:17.002Z,33.00
2018-07-24T17:29:45.481Z,32.80
2018-07-24T17:32:16.470Z,32.70
2018-07-24T17:37:13.351Z,32.50
2018-07-24T17:39:42.735Z,32.40
2018-07-24T17:44:39.442Z,32.20
2018-07-24T17:47:07.988Z,32.10
2018-07-24T17:49:36.488Z,32.00
2018-07-24T17:52:05.170Z,31.90
2018-07-24T17:54:33.666Z,31.80
2018-07-24T17:57:02.522Z,31.80
2018-07-24T17:59:30.998Z,31.70
2018-07-24T18:01:59.724Z,31.60
2018-07-24T18:04:28.234Z,31.50
2018-07-24T18:06:58.187Z,31.40
2018-07-24T18:09:26.659Z,31.40
2018-07-24T18:11:55.379Z,31.30
2018-07-24T18:14:24.901Z,31.30
2018-07-24T18:16:53.926Z,31.20
2018-07-24T18:19:22.433Z,31.10
2018-07-24T18:21:50.977Z,31.10
2018-07-24T18:24:19.441Z,31.10
2018-07-24T18:26:48.435Z,31.00
2018-07-24T18:29:16.951Z,30.90
2018-07-24T18:31:45.527Z,30.80
2018-07-24T18:34:14.077Z,30.80
2018-07-24T18:36:43.073Z,30.70
2018-07-24T18:39:11.678Z,30.60
2018-07-24T18:41:40.274Z,30.60
2018-07-24T18:44:08.836Z,30.50
2018-07-24T18:46:37.328Z,30.50
2018-07-24T18:49:05.889Z,30.40
2018-07-24T18:51:34.851Z,30.30
2018-07-24T18:54:03.505Z,30.30
2018-07-24T18:56:32.048Z,30.20
2018-07-24T18:59:00.643Z,30.10
2018-07-24T19:01:29.143Z,30.10
2018-07-24T19:03:57.673Z,30.00
2018-07-24T19:06:26.453Z,29.90
2018-07-24T19:08:55.080Z,29.90
2018-07-24T19:11:23.587Z,29.80
2018-07-24T19:13:52.410Z,29.80
2018-07-24T19:16:21.270Z,29.70
2018-07-24T19:18:49.985Z,29.60
2018-07-24T19:21:18.536Z,29.60
2018-07-24T19:23:47.085Z,29.50
2018-07-24T19:26:15.595Z,29.50
2018-07-24T19:28:44.442Z,29.40
2018-07-24T19:31:12.996Z,29.30
2018-07-24T19:33:42.015Z,29.30
2018-07-24T19:36:10.558Z,29.20
2018-07-24T19:38:39.097Z,29.20
2018-07-24T19:41:07.681Z,29.10
2018-07-24T19:43:36.402Z,29.10
2018-07-24T19:46:05.222Z,29.00
2018-07-24T19:48:33.783Z,29.00
2018-07-24T19:51:02.715Z,28.90
2018-07-24T19:53:31.324Z,28.80
2018-07-24T19:56:00.873Z,28.80
2018-07-24T19:58:30.162Z,28.80
2018-07-24T20:00:58.855Z,28.70
2018-07-24T20:03:27.620Z,28.60
2018-07-24T20:05:56.103Z,28.60
2018-07-24T20:08:24.622Z,28.60
2018-07-24T20:10:53.111Z,28.50
2018-07-24T20:13:21.813Z,28.50
2018-07-24T20:15:50.317Z,28.40
2018-07-24T20:18:19.511Z,28.40
2018-07-24T20:20:48.710Z,28.40
2018-07-24T20:23:17.659Z,28.30
2018-07-24T20:25:46.317Z,28.20
2018-07-24T20:28:15.964Z,28.10
2018-07-24T20:30:44.479Z,28.00
2018-07-24T20:33:13.563Z,27.90
2018-07-24T20:35:42.683Z,27.80
2018-07-24T20:38:11.356Z,27.80
2018-07-24T20:40:40.079Z,27.70
2018-07-24T20:43:08.908Z,27.60
2018-07-24T20:45:37.402Z,27.50
2018-07-24T20:48:07.198Z,27.40
2018-07-24T20:50:35.796Z,27.40
2018-07-24T20:53:04.317Z,27.30
2018-07-24T20:55:32.839Z,27.20
2018-07-24T20:58:01.383Z,27.20
2018-07-24T21:00:29.950Z,27.10
2018-07-24T21:02:58.420Z,27.10
2018-07-24T21:05:27.048Z,27.10
2018-07-24T21:07:56.101Z,27.10
2018-07-24T21:10:24.666Z,27.00
2018-07-24T21:12:53.231Z,27.00
2018-07-24T21:17:50.256Z,26.90
2018-07-24T21:20:18.973Z,26.80
2018-07-24T21:22:48.253Z,26.80
2018-07-24T21:25:16.938Z,26.80
2018-07-24T21:27:45.514Z,26.80
2018-07-24T21:30:14.259Z,26.70
2018-07-24T21:32:42.763Z,26.70
2018-07-24T21:35:11.482Z,26.70
2018-07-24T21:37:40.923Z,26.60
2018-07-24T21:40:09.525Z,26.70
2018-07-24T21:42:38.860Z,26.60
2018-07-24T21:45:07.345Z,26.60
2018-07-24T21:47:35.948Z,26.50
2018-07-24T21:50:04.616Z,26.40
2018-07-24T21:52:33.163Z,26.40
2018-07-24T21:55:02.942Z,26.30
2018-07-24T21:57:31.593Z,26.30
2018-07-24T22:00:00.818Z,26.20
2018-07-24T22:02:29.395Z,26.20
2018-07-24T22:07:27.178Z,26.00
2018-07-24T22:09:55.677Z,26.10
2018-07-24T22:12:24.744Z,26.00
2018-07-24T22:14:53.278Z,26.00
2018-07-24T22:17:21.815Z,25.90
2018-07-24T22:19:50.356Z,25.90
2018-07-24T22:22:18.882Z,25.80
2018-07-24T22:27:15.758Z,25.70
2018-07-24T22:29:44.290Z,25.70
2018-07-24T22:32:13.881Z,25.60
2018-07-24T22:34:42.834Z,25.60
2018-07-24T22:37:11.345Z,25.60
2018-07-24T22:39:39.792Z,25.60
2018-07-24T22:42:08.773Z,25.60
2018-07-24T22:47:05.796Z,25.50
2018-07-24T22:49:34.193Z,25.40
2018-07-24T22:52:02.584Z,25.40
2018-07-24T22:54:30.942Z,25.30
2018-07-24T22:56:59.698Z,25.30
2018-07-24T22:59:28.334Z,25.20
2018-07-24T23:01:56.817Z,25.20
2018-07-24T23:04:25.446Z,25.10
2018-07-24T23:06:53.850Z,25.10
2018-07-24T23:09:22.328Z,25.10
2018-07-24T23:11:50.728Z,25.00
2018-07-24T23:14:19.189Z,25.00
2018-07-24T23:16:47.771Z,25.00
2018-07-24T23:19:16.350Z,25.00
2018-07-24T23:21:44.941Z,24.90
2018-07-24T23:24:13.457Z,24.90
2018-07-24T23:29:10.032Z,24.80
2018-07-24T23:31:38.477Z,24.70
2018-07-24T23:34:06.920Z,24.70
2018-07-24T23:36:35.300Z,24.60
2018-07-24T23:39:04.453Z,24.60
2018-07-24T23:41:32.930Z,24.60
2018-07-24T23:44:01.327Z,24.50
2018-07-24T23:46:30.387Z,24.50
2018-07-24T23:48:58.824Z,24.40
2018-07-24T23:51:27.226Z,24.40
2018-07-24T23:53:56.181Z,24.40
2018-07-24T23:56:24.781Z,24.30
2018-07-24T23:58:53.494Z,24.30
